sensor_id;sensor_type;location;lat;lon;timestamp;temperature;humidity
78876;DHT22;68253;52.506;5.486;2023-05-21T00:00:14;16.10;61.30
78876;DHT22;68253;52.506;5.486;2023-05-21T00:02:40;16.10;61.30
78876;DHT22;68253;52.506;5.486;2023-05-21T00:05:07;16.10;61.30
78876;DHT22;68253;52.506;5.486;2023-05-21T00:07:36;16.10;61.30
78876;DHT22;68253;52.506;5.486;2023-05-21T00:10:02;16.10;61.30
78876;DHT22;68253;52.506;5.486;2023-05-21T00:12:29;16.10;61.30
78876;DHT22;68253;52.506;5.486;2023-05-21T00:14:57;16.10;61.40
78876;DHT22;68253;52.506;5.486;2023-05-21T00:17:24;16.10;61.40
78876;DHT22;68253;52.506;5.486;2023-05-21T00:19:51;16.10;61.50
78876;DHT22;68253;52.506;5.486;2023-05-21T00:22:17;16.00;61.50
78876;DHT22;68253;52.506;5.486;2023-05-21T00:24:43;16.00;61.50
78876;DHT22;68253;52.506;5.486;2023-05-21T00:27:11;16.00;61.60
78876;DHT22;68253;52.506;5.486;2023-05-21T00:29:38;16.10;61.70
78876;DHT22;68253;52.506;5.486;2023-05-21T00:32:05;16.00;61.70
78876;DHT22;68253;52.506;5.486;2023-05-21T00:34:31;16.00;61.80
78876;DHT22;68253;52.506;5.486;2023-05-21T00:36:57;16.00;61.90
78876;DHT22;68253;52.506;5.486;2023-05-21T00:39:23;16.00;61.90
78876;DHT22;68253;52.506;5.486;2023-05-21T00:41:49;16.00;62.00
78876;DHT22;68253;52.506;5.486;2023-05-21T00:44:15;16.00;62.00
78876;DHT22;68253;52.506;5.486;2023-05-21T00:46:43;16.00;62.10
78876;DHT22;68253;52.506;5.486;2023-05-21T00:49:10;16.00;62.20
78876;DHT22;68253;52.506;5.486;2023-05-21T00:51:37;15.90;62.20
78876;DHT22;68253;52.506;5.486;2023-05-21T00:54:03;15.90;62.20
78876;DHT22;68253;52.506;5.486;2023-05-21T00:56:30;15.80;62.30
78876;DHT22;68253;52.506;5.486;2023-05-21T00:58:56;15.80;62.30
78876;DHT22;68253;52.506;5.486;2023-05-21T01:01:23;15.80;62.50
78876;DHT22;68253;52.506;5.486;2023-05-21T01:03:53;15.90;62.50
78876;DHT22;68253;52.506;5.486;2023-05-21T01:06:22;15.90;62.40
78876;DHT22;68253;52.506;5.486;2023-05-21T01:08:49;15.90;62.40
78876;DHT22;68253;52.506;5.486;2023-05-21T01:11:16;15.90;62.40
78876;DHT22;68253;52.506;5.486;2023-05-21T01:13:45;15.80;62.50
78876;DHT22;68253;52.506;5.486;2023-05-21T01:16:12;15.90;62.60
78876;DHT22;68253;52.506;5.486;2023-05-21T01:18:38;16.00;62.70
78876;DHT22;68253;52.506;5.486;2023-05-21T01:21:08;16.00;62.70
78876;DHT22;68253;52.506;5.486;2023-05-21T01:23:34;15.90;62.50
78876;DHT22;68253;52.506;5.486;2023-05-21T01:26:01;15.90;62.70
78876;DHT22;68253;52.506;5.486;2023-05-21T01:28:27;15.90;62.60
78876;DHT22;68253;52.506;5.486;2023-05-21T01:30:55;15.90;62.60
78876;DHT22;68253;52.506;5.486;2023-05-21T01:33:45;15.80;62.70
78876;DHT22;68253;52.506;5.486;2023-05-21T01:36:20;15.80;62.70
78876;DHT22;68253;52.506;5.486;2023-05-21T01:38:59;15.80;62.80
78876;DHT22;68253;52.506;5.486;2023-05-21T01:41:28;15.80;62.90
78876;DHT22;68253;52.506;5.486;2023-05-21T01:43:56;15.80;63.00
78876;DHT22;68253;52.506;5.486;2023-05-21T01:46:26;15.80;63.00
78876;DHT22;68253;52.506;5.486;2023-05-21T01:48:55;15.90;63.10
78876;DHT22;68253;52.506;5.486;2023-05-21T01:51:22;15.80;62.90
78876;DHT22;68253;52.506;5.486;2023-05-21T01:53:49;15.80;63.00
78876;DHT22;68253;52.506;5.486;2023-05-21T01:56:15;15.80;63.00
78876;DHT22;68253;52.506;5.486;2023-05-21T01:58:41;15.80;63.00
78876;DHT22;68253;52.506;5.486;2023-05-21T02:01:09;15.80;63.00
78876;DHT22;68253;52.506;5.486;2023-05-21T02:03:36;15.80;63.10
78876;DHT22;68253;52.506;5.486;2023-05-21T02:06:03;15.80;63.30
78876;DHT22;68253;52.506;5.486;2023-05-21T02:08:29;15.80;63.20
78876;DHT22;68253;52.506;5.486;2023-05-21T02:10:56;15.80;63.30
78876;DHT22;68253;52.506;5.486;2023-05-21T02:13:22;15.80;63.30
78876;DHT22;68253;52.506;5.486;2023-05-21T02:15:49;15.80;63.20
78876;DHT22;68253;52.506;5.486;2023-05-21T02:18:19;15.80;63.30
78876;DHT22;68253;52.506;5.486;2023-05-21T02:20:46;15.80;63.30
78876;DHT22;68253;52.506;5.486;2023-05-21T02:23:12;15.80;63.40
78876;DHT22;68253;52.506;5.486;2023-05-21T02:25:38;15.80;63.40
78876;DHT22;68253;52.506;5.486;2023-05-21T02:28:05;15.80;63.40
78876;DHT22;68253;52.506;5.486;2023-05-21T02:30:31;15.80;63.40
78876;DHT22;68253;52.506;5.486;2023-05-21T02:32:57;15.80;63.40
78876;DHT22;68253;52.506;5.486;2023-05-21T02:35:24;15.80;63.40
78876;DHT22;68253;52.506;5.486;2023-05-21T02:37:50;15.80;63.50
78876;DHT22;68253;52.506;5.486;2023-05-21T02:40:16;15.80;63.50
78876;DHT22;68253;52.506;5.486;2023-05-21T02:42:42;15.80;63.50
78876;DHT22;68253;52.506;5.486;2023-05-21T02:45:13;15.70;63.60
78876;DHT22;68253;52.506;5.486;2023-05-21T02:47:41;15.60;63.60
78876;DHT22;68253;52.506;5.486;2023-05-21T02:50:08;15.60;63.70
78876;DHT22;68253;52.506;5.486;2023-05-21T02:52:40;15.60;63.80
78876;DHT22;68253;52.506;5.486;2023-05-21T02:55:07;15.60;63.80
78876;DHT22;68253;52.506;5.486;2023-05-21T02:57:33;15.60;63.80
78876;DHT22;68253;52.506;5.486;2023-05-21T02:59:59;15.60;63.90
78876;DHT22;68253;52.506;5.486;2023-05-21T03:02:25;15.50;64.00
78876;DHT22;68253;52.506;5.486;2023-05-21T03:04:51;15.50;64.10
78876;DHT22;68253;52.506;5.486;2023-05-21T03:07:18;15.50;64.20
78876;DHT22;68253;52.506;5.486;2023-05-21T03:09:45;15.40;64.30
78876;DHT22;68253;52.506;5.486;2023-05-21T03:12:11;15.40;64.40
78876;DHT22;68253;52.506;5.486;2023-05-21T03:14:38;15.40;64.60
78876;DHT22;68253;52.506;5.486;2023-05-21T03:17:04;15.40;64.70
78876;DHT22;68253;52.506;5.486;2023-05-21T03:19:34;15.30;64.80
78876;DHT22;68253;52.506;5.486;2023-05-21T03:22:03;15.30;64.80
78876;DHT22;68253;52.506;5.486;2023-05-21T03:24:29;15.30;64.90
78876;DHT22;68253;52.506;5.486;2023-05-21T03:26:56;15.30;65.00
78876;DHT22;68253;52.506;5.486;2023-05-21T03:29:24;15.30;65.20
78876;DHT22;68253;52.506;5.486;2023-05-21T03:31:53;15.30;65.30
78876;DHT22;68253;52.506;5.486;2023-05-21T03:34:20;15.30;65.40
78876;DHT22;68253;52.506;5.486;2023-05-21T03:36:48;15.30;65.30
78876;DHT22;68253;52.506;5.486;2023-05-21T03:39:16;15.20;65.30
78876;DHT22;68253;52.506;5.486;2023-05-21T03:41:43;15.30;65.40
78876;DHT22;68253;52.506;5.486;2023-05-21T03:44:29;15.30;65.50
78876;DHT22;68253;52.506;5.486;2023-05-21T03:47:08;15.30;65.50
78876;DHT22;68253;52.506;5.486;2023-05-21T03:49:35;15.30;65.70
78876;DHT22;68253;52.506;5.486;2023-05-21T03:52:02;15.30;65.70
78876;DHT22;68253;52.506;5.486;2023-05-21T03:54:29;15.30;65.70
78876;DHT22;68253;52.506;5.486;2023-05-21T03:56:59;15.30;65.80
78876;DHT22;68253;52.506;5.486;2023-05-21T03:59:27;15.20;65.80
78876;DHT22;68253;52.506;5.486;2023-05-21T04:01:53;15.30;65.90
78876;DHT22;68253;52.506;5.486;2023-05-21T04:04:20;15.30;65.80
78876;DHT22;68253;52.506;5.486;2023-05-21T04:06:47;15.30;65.80
78876;DHT22;68253;52.506;5.486;2023-05-21T04:09:13;15.30;65.90
78876;DHT22;68253;52.506;5.486;2023-05-21T04:11:39;15.30;65.90
78876;DHT22;68253;52.506;5.486;2023-05-21T04:14:05;15.30;66.00
78876;DHT22;68253;52.506;5.486;2023-05-21T04:16:31;15.30;66.00
78876;DHT22;68253;52.506;5.486;2023-05-21T04:18:59;15.30;66.00
78876;DHT22;68253;52.506;5.486;2023-05-21T04:21:26;15.30;66.00
78876;DHT22;68253;52.506;5.486;2023-05-21T04:23:52;15.30;66.10
78876;DHT22;68253;52.506;5.486;2023-05-21T04:26:38;15.30;66.10
78876;DHT22;68253;52.506;5.486;2023-05-21T04:29:07;15.30;66.20
78876;DHT22;68253;52.506;5.486;2023-05-21T04:31:34;15.40;66.20
78876;DHT22;68253;52.506;5.486;2023-05-21T04:34:02;15.40;66.20
78876;DHT22;68253;52.506;5.486;2023-05-21T04:36:29;15.40;66.20
78876;DHT22;68253;52.506;5.486;2023-05-21T04:38:56;15.40;66.10
78876;DHT22;68253;52.506;5.486;2023-05-21T04:41:22;15.40;66.20
78876;DHT22;68253;52.506;5.486;2023-05-21T04:43:48;15.50;66.20
78876;DHT22;68253;52.506;5.486;2023-05-21T04:46:20;15.50;66.10
78876;DHT22;68253;52.506;5.486;2023-05-21T04:48:53;15.50;66.20
78876;DHT22;68253;52.506;5.486;2023-05-21T04:51:23;15.50;66.10
78876;DHT22;68253;52.506;5.486;2023-05-21T04:53:52;15.50;66.20
78876;DHT22;68253;52.506;5.486;2023-05-21T04:56:18;15.50;66.10
78876;DHT22;68253;52.506;5.486;2023-05-21T04:58:45;15.50;66.00
78876;DHT22;68253;52.506;5.486;2023-05-21T05:01:13;15.50;66.10
78876;DHT22;68253;52.506;5.486;2023-05-21T05:03:40;15.50;66.00
78876;DHT22;68253;52.506;5.486;2023-05-21T05:06:06;15.40;66.10
78876;DHT22;68253;52.506;5.486;2023-05-21T05:08:33;15.40;66.10
78876;DHT22;68253;52.506;5.486;2023-05-21T05:10:59;15.40;66.10
78876;DHT22;68253;52.506;5.486;2023-05-21T05:13:25;15.40;66.00
78876;DHT22;68253;52.506;5.486;2023-05-21T05:15:52;15.40;66.00
78876;DHT22;68253;52.506;5.486;2023-05-21T05:18:19;15.30;66.10
78876;DHT22;68253;52.506;5.486;2023-05-21T05:20:45;15.40;66.00
78876;DHT22;68253;52.506;5.486;2023-05-21T05:23:12;15.30;66.00
78876;DHT22;68253;52.506;5.486;2023-05-21T05:25:39;15.30;66.10
78876;DHT22;68253;52.506;5.486;2023-05-21T05:28:05;15.40;66.20
78876;DHT22;68253;52.506;5.486;2023-05-21T05:30:31;15.40;66.10
78876;DHT22;68253;52.506;5.486;2023-05-21T05:33:08;15.40;66.10
78876;DHT22;68253;52.506;5.486;2023-05-21T05:35:34;15.40;66.10
78876;DHT22;68253;52.506;5.486;2023-05-21T05:38:01;15.50;66.10
78876;DHT22;68253;52.506;5.486;2023-05-21T05:40:27;15.50;66.20
78876;DHT22;68253;52.506;5.486;2023-05-21T05:42:53;15.50;66.10
78876;DHT22;68253;52.506;5.486;2023-05-21T05:45:19;15.50;66.20
78876;DHT22;68253;52.506;5.486;2023-05-21T05:47:47;15.50;66.30
78876;DHT22;68253;52.506;5.486;2023-05-21T05:50:13;15.60;66.40
78876;DHT22;68253;52.506;5.486;2023-05-21T05:52:40;15.60;66.40
78876;DHT22;68253;52.506;5.486;2023-05-21T05:55:06;15.60;66.30
78876;DHT22;68253;52.506;5.486;2023-05-21T05:57:33;15.60;66.20
78876;DHT22;68253;52.506;5.486;2023-05-21T06:00:06;15.70;66.10
78876;DHT22;68253;52.506;5.486;2023-05-21T06:02:38;15.80;66.00
78876;DHT22;68253;52.506;5.486;2023-05-21T06:05:05;15.70;66.00
78876;DHT22;68253;52.506;5.486;2023-05-21T06:07:37;15.80;66.10
78876;DHT22;68253;52.506;5.486;2023-05-21T06:10:05;15.80;66.20
78876;DHT22;68253;52.506;5.486;2023-05-21T06:12:31;15.80;66.10
78876;DHT22;68253;52.506;5.486;2023-05-21T06:14:57;15.80;66.00
78876;DHT22;68253;52.506;5.486;2023-05-21T06:17:23;15.80;66.00
78876;DHT22;68253;52.506;5.486;2023-05-21T06:19:51;15.80;66.00
78876;DHT22;68253;52.506;5.486;2023-05-21T06:22:17;15.90;66.00
78876;DHT22;68253;52.506;5.486;2023-05-21T06:24:43;16.00;66.00
78876;DHT22;68253;52.506;5.486;2023-05-21T06:27:09;16.00;66.00
78876;DHT22;68253;52.506;5.486;2023-05-21T06:29:35;16.00;65.90
78876;DHT22;68253;52.506;5.486;2023-05-21T06:32:02;16.10;65.80
78876;DHT22;68253;52.506;5.486;2023-05-21T06:34:28;16.10;65.70
78876;DHT22;68253;52.506;5.486;2023-05-21T06:36:54;16.10;65.70
78876;DHT22;68253;52.506;5.486;2023-05-21T06:39:20;16.10;65.70
78876;DHT22;68253;52.506;5.486;2023-05-21T06:41:47;16.20;65.70
78876;DHT22;68253;52.506;5.486;2023-05-21T06:44:36;16.20;65.60
78876;DHT22;68253;52.506;5.486;2023-05-21T06:47:10;16.20;65.70
78876;DHT22;68253;52.506;5.486;2023-05-21T06:49:36;16.20;65.70
78876;DHT22;68253;52.506;5.486;2023-05-21T06:52:02;16.20;65.70
78876;DHT22;68253;52.506;5.486;2023-05-21T06:54:29;16.30;65.60
78876;DHT22;68253;52.506;5.486;2023-05-21T06:56:55;16.30;65.50
78876;DHT22;68253;52.506;5.486;2023-05-21T06:59:21;16.30;65.60
78876;DHT22;68253;52.506;5.486;2023-05-21T07:01:47;16.40;65.60
78876;DHT22;68253;52.506;5.486;2023-05-21T07:04:13;16.40;65.50
78876;DHT22;68253;52.506;5.486;2023-05-21T07:06:41;16.50;65.30
78876;DHT22;68253;52.506;5.486;2023-05-21T07:09:08;16.50;65.30
78876;DHT22;68253;52.506;5.486;2023-05-21T07:11:35;16.60;65.10
78876;DHT22;68253;52.506;5.486;2023-05-21T07:14:03;16.60;65.00
78876;DHT22;68253;52.506;5.486;2023-05-21T07:16:31;16.60;65.00
78876;DHT22;68253;52.506;5.486;2023-05-21T07:18:58;16.60;65.00
78876;DHT22;68253;52.506;5.486;2023-05-21T07:21:24;16.70;65.10
78876;DHT22;68253;52.506;5.486;2023-05-21T07:23:51;16.80;65.00
78876;DHT22;68253;52.506;5.486;2023-05-21T07:26:17;16.90;64.70
78876;DHT22;68253;52.506;5.486;2023-05-21T07:28:44;17.00;64.50
78876;DHT22;68253;52.506;5.486;2023-05-21T07:31:10;17.00;64.50
78876;DHT22;68253;52.506;5.486;2023-05-21T07:33:45;17.00;64.30
78876;DHT22;68253;52.506;5.486;2023-05-21T07:36:12;17.00;64.20
78876;DHT22;68253;52.506;5.486;2023-05-21T07:38:39;17.20;64.40
78876;DHT22;68253;52.506;5.486;2023-05-21T07:41:06;17.40;64.40
78876;DHT22;68253;52.506;5.486;2023-05-21T07:43:34;17.50;64.10
78876;DHT22;68253;52.506;5.486;2023-05-21T07:46:01;17.80;63.90
78876;DHT22;68253;52.506;5.486;2023-05-21T07:48:27;18.00;63.70
78876;DHT22;68253;52.506;5.486;2023-05-21T07:50:57;18.10;63.20
78876;DHT22;68253;52.506;5.486;2023-05-21T07:53:24;18.20;62.90
78876;DHT22;68253;52.506;5.486;2023-05-21T07:55:50;18.40;62.90
78876;DHT22;68253;52.506;5.486;2023-05-21T07:58:21;18.50;62.90
78876;DHT22;68253;52.506;5.486;2023-05-21T08:00:48;18.80;62.70
78876;DHT22;68253;52.506;5.486;2023-05-21T08:03:16;19.00;62.40
78876;DHT22;68253;52.506;5.486;2023-05-21T08:05:43;19.40;61.80
78876;DHT22;68253;52.506;5.486;2023-05-21T08:08:14;19.70;61.40
78876;DHT22;68253;52.506;5.486;2023-05-21T08:10:41;20.00;60.60
78876;DHT22;68253;52.506;5.486;2023-05-21T08:13:07;20.00;60.20
78876;DHT22;68253;52.506;5.486;2023-05-21T08:15:33;20.30;60.50
78876;DHT22;68253;52.506;5.486;2023-05-21T08:17:59;20.50;60.40
78876;DHT22;68253;52.506;5.486;2023-05-21T08:20:26;20.80;60.00
78876;DHT22;68253;52.506;5.486;2023-05-21T08:22:54;21.10;58.90
78876;DHT22;68253;52.506;5.486;2023-05-21T08:25:21;21.30;58.60
78876;DHT22;68253;52.506;5.486;2023-05-21T08:27:47;21.50;59.00
78876;DHT22;68253;52.506;5.486;2023-05-21T08:30:13;21.70;58.10
78876;DHT22;68253;52.506;5.486;2023-05-21T08:32:40;21.80;57.50
78876;DHT22;68253;52.506;5.486;2023-05-21T08:35:07;21.70;57.40
78876;DHT22;68253;52.506;5.486;2023-05-21T08:37:51;21.70;57.50
78876;DHT22;68253;52.506;5.486;2023-05-21T08:40:26;21.70;57.80
78876;DHT22;68253;52.506;5.486;2023-05-21T08:42:53;21.90;57.80
78876;DHT22;68253;52.506;5.486;2023-05-21T08:45:26;21.90;57.60
78876;DHT22;68253;52.506;5.486;2023-05-21T08:47:57;21.90;57.30
78876;DHT22;68253;52.506;5.486;2023-05-21T08:50:27;21.90;57.60
78876;DHT22;68253;52.506;5.486;2023-05-21T08:52:56;21.90;57.30
78876;DHT22;68253;52.506;5.486;2023-05-21T08:55:23;21.90;57.20
78876;DHT22;68253;52.506;5.486;2023-05-21T08:57:53;22.00;57.50
78876;DHT22;68253;52.506;5.486;2023-05-21T09:00:19;22.10;57.20
78876;DHT22;68253;52.506;5.486;2023-05-21T09:02:46;22.20;57.00
78876;DHT22;68253;52.506;5.486;2023-05-21T09:05:14;22.50;57.00
78876;DHT22;68253;52.506;5.486;2023-05-21T09:10:36;22.90;56.30
78876;DHT22;68253;52.506;5.486;2023-05-21T09:13:03;22.90;55.90
78876;DHT22;68253;52.506;5.486;2023-05-21T09:15:30;22.80;55.90
78876;DHT22;68253;52.506;5.486;2023-05-21T09:17:57;22.70;56.00
78876;DHT22;68253;52.506;5.486;2023-05-21T09:20:40;22.70;56.20
78876;DHT22;68253;52.506;5.486;2023-05-21T09:23:07;22.70;56.50
78876;DHT22;68253;52.506;5.486;2023-05-21T09:25:44;22.70;56.70
78876;DHT22;68253;52.506;5.486;2023-05-21T09:28:14;22.90;56.70
78876;DHT22;68253;52.506;5.486;2023-05-21T09:30:50;23.10;56.70
78876;DHT22;68253;52.506;5.486;2023-05-21T09:33:25;23.30;56.40
78876;DHT22;68253;52.506;5.486;2023-05-21T09:35:52;23.50;56.20
78876;DHT22;68253;52.506;5.486;2023-05-21T09:38:21;23.70;56.20
78876;DHT22;68253;52.506;5.486;2023-05-21T09:40:48;23.90;56.00
78876;DHT22;68253;52.506;5.486;2023-05-21T09:43:16;24.00;55.80
78876;DHT22;68253;52.506;5.486;2023-05-21T09:45:53;24.10;55.40
78876;DHT22;68253;52.506;5.486;2023-05-21T09:51:18;24.50;55.70
78876;DHT22;68253;52.506;5.486;2023-05-21T09:56:17;25.00;54.80
78876;DHT22;68253;52.506;5.486;2023-05-21T09:58:43;25.00;55.20
78876;DHT22;68253;52.506;5.486;2023-05-21T10:01:10;25.10;55.10
78876;DHT22;68253;52.506;5.486;2023-05-21T10:03:38;25.30;54.70
78876;DHT22;68253;52.506;5.486;2023-05-21T10:06:07;25.40;54.50
78876;DHT22;68253;52.506;5.486;2023-05-21T10:08:35;25.50;54.60
78876;DHT22;68253;52.506;5.486;2023-05-21T10:11:04;25.60;54.30
78876;DHT22;68253;52.506;5.486;2023-05-21T10:13:33;25.60;54.30
78876;DHT22;68253;52.506;5.486;2023-05-21T10:16:01;25.60;53.90
78876;DHT22;68253;52.506;5.486;2023-05-21T10:18:29;25.60;53.80
78876;DHT22;68253;52.506;5.486;2023-05-21T10:20:58;25.60;54.10
78876;DHT22;68253;52.506;5.486;2023-05-21T10:23:26;25.60;53.90
78876;DHT22;68253;52.506;5.486;2023-05-21T10:25:54;25.70;53.90
78876;DHT22;68253;52.506;5.486;2023-05-21T10:28:21;25.70;53.90
78876;DHT22;68253;52.506;5.486;2023-05-21T10:30:48;25.70;54.10
78876;DHT22;68253;52.506;5.486;2023-05-21T10:33:15;25.80;54.00
78876;DHT22;68253;52.506;5.486;2023-05-21T10:35:41;25.80;53.90
78876;DHT22;68253;52.506;5.486;2023-05-21T10:38:10;26.00;53.60
78876;DHT22;68253;52.506;5.486;2023-05-21T10:40:38;26.00;53.40
78876;DHT22;68253;52.506;5.486;2023-05-21T10:57:21;25.80;53.70
78876;DHT22;68253;52.506;5.486;2023-05-21T10:59:52;25.80;53.70
78876;DHT22;68253;52.506;5.486;2023-05-21T11:02:18;25.80;53.70
78876;DHT22;68253;52.506;5.486;2023-05-21T11:04:46;25.70;53.60
78876;DHT22;68253;52.506;5.486;2023-05-21T11:07:14;25.60;54.00
78876;DHT22;68253;52.506;5.486;2023-05-21T11:09:49;25.60;53.80
78876;DHT22;68253;52.506;5.486;2023-05-21T11:12:15;25.60;54.20
78876;DHT22;68253;52.506;5.486;2023-05-21T11:14:55;25.80;54.30
78876;DHT22;68253;52.506;5.486;2023-05-21T11:17:40;25.80;53.90
78876;DHT22;68253;52.506;5.486;2023-05-21T11:20:11;25.90;53.90
78876;DHT22;68253;52.506;5.486;2023-05-21T11:22:41;26.00;54.30
78876;DHT22;68253;52.506;5.486;2023-05-21T11:25:07;26.20;54.50
78876;DHT22;68253;52.506;5.486;2023-05-21T11:27:40;26.40;54.10
78876;DHT22;68253;52.506;5.486;2023-05-21T11:30:08;26.60;53.50
78876;DHT22;68253;52.506;5.486;2023-05-21T11:32:38;26.60;53.40
78876;DHT22;68253;52.506;5.486;2023-05-21T11:35:07;26.80;53.50
78876;DHT22;68253;52.506;5.486;2023-05-21T11:37:34;26.80;53.70
78876;DHT22;68253;52.506;5.486;2023-05-21T11:42:48;27.10;53.10
78876;DHT22;68253;52.506;5.486;2023-05-21T11:45:17;27.20;52.70
78876;DHT22;68253;52.506;5.486;2023-05-21T11:47:45;27.30;52.70
78876;DHT22;68253;52.506;5.486;2023-05-21T11:50:13;27.30;52.20
78876;DHT22;68253;52.506;5.486;2023-05-21T11:52:40;27.40;52.50
78876;DHT22;68253;52.506;5.486;2023-05-21T11:55:08;27.50;52.70
78876;DHT22;68253;52.506;5.486;2023-05-21T11:57:34;27.50;52.30
78876;DHT22;68253;52.506;5.486;2023-05-21T12:00:02;27.50;52.60
78876;DHT22;68253;52.506;5.486;2023-05-21T12:02:52;27.50;52.50
78876;DHT22;68253;52.506;5.486;2023-05-21T12:05:18;27.50;52.30
78876;DHT22;68253;52.506;5.486;2023-05-21T12:07:48;27.50;52.60
78876;DHT22;68253;52.506;5.486;2023-05-21T12:10:20;27.60;52.50
78876;DHT22;68253;52.506;5.486;2023-05-21T12:12:47;27.70;52.10
78876;DHT22;68253;52.506;5.486;2023-05-21T12:15:16;27.80;52.10
78876;DHT22;68253;52.506;5.486;2023-05-21T12:17:42;27.80;51.70
78876;DHT22;68253;52.506;5.486;2023-05-21T12:20:13;27.70;51.60
78876;DHT22;68253;52.506;5.486;2023-05-21T12:22:40;27.50;52.20
78876;DHT22;68253;52.506;5.486;2023-05-21T12:25:08;27.60;51.80
78876;DHT22;68253;52.506;5.486;2023-05-21T12:27:35;27.50;51.70
78876;DHT22;68253;52.506;5.486;2023-05-21T12:30:02;27.50;52.10
78876;DHT22;68253;52.506;5.486;2023-05-21T12:32:28;27.50;52.30
78876;DHT22;68253;52.506;5.486;2023-05-21T12:34:55;27.50;51.90
78876;DHT22;68253;52.506;5.486;2023-05-21T12:37:26;27.40;51.70
78876;DHT22;68253;52.506;5.486;2023-05-21T12:39:54;27.30;51.80
78876;DHT22;68253;52.506;5.486;2023-05-21T12:42:30;27.10;51.80
78876;DHT22;68253;52.506;5.486;2023-05-21T12:45:00;27.10;52.20
78876;DHT22;68253;52.506;5.486;2023-05-21T12:47:27;27.00;52.40
78876;DHT22;68253;52.506;5.486;2023-05-21T12:49:55;27.00;52.50
78876;DHT22;68253;52.506;5.486;2023-05-21T12:52:23;27.00;52.60
78876;DHT22;68253;52.506;5.486;2023-05-21T12:54:56;27.00;52.80
78876;DHT22;68253;52.506;5.486;2023-05-21T12:57:24;27.10;52.40
78876;DHT22;68253;52.506;5.486;2023-05-21T12:59:55;27.10;52.30
78876;DHT22;68253;52.506;5.486;2023-05-21T13:02:33;27.00;52.30
78876;DHT22;68253;52.506;5.486;2023-05-21T13:05:01;27.00;52.60
78876;DHT22;68253;52.506;5.486;2023-05-21T13:07:30;26.80;52.30
78876;DHT22;68253;52.506;5.486;2023-05-21T13:09:56;26.60;52.60
78876;DHT22;68253;52.506;5.486;2023-05-21T13:12:24;26.50;53.10
78876;DHT22;68253;52.506;5.486;2023-05-21T13:14:52;26.50;52.90
78876;DHT22;68253;52.506;5.486;2023-05-21T13:17:19;26.60;53.10
78876;DHT22;68253;52.506;5.486;2023-05-21T13:22:34;26.80;52.50
78876;DHT22;68253;52.506;5.486;2023-05-21T13:25:01;26.70;52.80
78876;DHT22;68253;52.506;5.486;2023-05-21T13:27:27;26.70;52.80
78876;DHT22;68253;52.506;5.486;2023-05-21T13:29:54;26.50;52.70
78876;DHT22;68253;52.506;5.486;2023-05-21T13:32:20;26.30;53.30
78876;DHT22;68253;52.506;5.486;2023-05-21T13:34:46;26.20;53.10
78876;DHT22;68253;52.506;5.486;2023-05-21T13:37:13;26.20;53.40
78876;DHT22;68253;52.506;5.486;2023-05-21T13:39:39;26.10;53.50
78876;DHT22;68253;52.506;5.486;2023-05-21T13:42:05;26.20;53.70
78876;DHT22;68253;52.506;5.486;2023-05-21T13:44:32;26.40;53.80
78876;DHT22;68253;52.506;5.486;2023-05-21T13:47:04;26.50;53.20
78876;DHT22;68253;52.506;5.486;2023-05-21T13:49:32;26.50;53.20
78876;DHT22;68253;52.506;5.486;2023-05-21T13:51:59;26.50;53.40
78876;DHT22;68253;52.506;5.486;2023-05-21T13:54:26;26.60;53.50
78876;DHT22;68253;52.506;5.486;2023-05-21T13:56:52;26.60;52.90
78876;DHT22;68253;52.506;5.486;2023-05-21T13:59:19;26.60;53.40
78876;DHT22;68253;52.506;5.486;2023-05-21T14:01:46;26.60;53.30
78876;DHT22;68253;52.506;5.486;2023-05-21T14:04:13;26.70;53.60
78876;DHT22;68253;52.506;5.486;2023-05-21T14:06:39;26.70;53.50
78876;DHT22;68253;52.506;5.486;2023-05-21T14:09:06;26.80;53.70
78876;DHT22;68253;52.506;5.486;2023-05-21T14:11:32;27.00;53.70
78876;DHT22;68253;52.506;5.486;2023-05-21T14:13:59;27.00;52.90
78876;DHT22;68253;52.506;5.486;2023-05-21T14:16:25;26.90;52.80
78876;DHT22;68253;52.506;5.486;2023-05-21T14:18:53;26.70;52.90
78876;DHT22;68253;52.506;5.486;2023-05-21T14:21:20;26.60;53.20
78876;DHT22;68253;52.506;5.486;2023-05-21T14:23:46;26.60;53.60
78876;DHT22;68253;52.506;5.486;2023-05-21T14:26:13;26.60;53.30
78876;DHT22;68253;52.506;5.486;2023-05-21T14:28:41;26.60;53.50
78876;DHT22;68253;52.506;5.486;2023-05-21T14:31:07;26.50;53.30
78876;DHT22;68253;52.506;5.486;2023-05-21T14:33:35;26.40;53.60
78876;DHT22;68253;52.506;5.486;2023-05-21T14:36:03;26.30;53.60
78876;DHT22;68253;52.506;5.486;2023-05-21T14:38:29;26.20;53.70
78876;DHT22;68253;52.506;5.486;2023-05-21T14:40:55;26.10;53.40
78876;DHT22;68253;52.506;5.486;2023-05-21T14:43:21;26.00;54.20
78876;DHT22;68253;52.506;5.486;2023-05-21T14:45:49;26.10;54.20
78876;DHT22;68253;52.506;5.486;2023-05-21T14:48:18;26.10;54.20
78876;DHT22;68253;52.506;5.486;2023-05-21T14:50:48;26.10;54.00
78876;DHT22;68253;52.506;5.486;2023-05-21T14:53:15;26.00;54.40
78876;DHT22;68253;52.506;5.486;2023-05-21T14:55:41;25.90;54.10
78876;DHT22;68253;52.506;5.486;2023-05-21T14:58:07;25.70;54.80
78876;DHT22;68253;52.506;5.486;2023-05-21T15:00:34;25.60;54.90
78876;DHT22;68253;52.506;5.486;2023-05-21T15:03:01;25.50;55.00
78876;DHT22;68253;52.506;5.486;2023-05-21T15:05:27;25.60;55.00
78876;DHT22;68253;52.506;5.486;2023-05-21T15:07:57;25.60;55.00
78876;DHT22;68253;52.506;5.486;2023-05-21T15:10:25;25.50;55.10
78876;DHT22;68253;52.506;5.486;2023-05-21T15:12:51;25.40;55.20
78876;DHT22;68253;52.506;5.486;2023-05-21T15:15:18;25.30;55.30
78876;DHT22;68253;52.506;5.486;2023-05-21T15:17:49;25.30;55.40
78876;DHT22;68253;52.506;5.486;2023-05-21T15:20:16;25.20;55.90
78876;DHT22;68253;52.506;5.486;2023-05-21T15:22:42;25.10;56.00
78876;DHT22;68253;52.506;5.486;2023-05-21T15:25:09;25.10;55.80
78876;DHT22;68253;52.506;5.486;2023-05-21T15:27:35;25.00;55.70
78876;DHT22;68253;52.506;5.486;2023-05-21T15:30:01;25.00;55.90
78876;DHT22;68253;52.506;5.486;2023-05-21T15:32:27;25.00;56.20
78876;DHT22;68253;52.506;5.486;2023-05-21T15:34:53;25.00;56.30
78876;DHT22;68253;52.506;5.486;2023-05-21T15:37:20;25.00;56.50
78876;DHT22;68253;52.506;5.486;2023-05-21T15:39:47;25.00;56.50
78876;DHT22;68253;52.506;5.486;2023-05-21T15:42:13;24.90;56.40
78876;DHT22;68253;52.506;5.486;2023-05-21T15:44:40;24.80;56.60
78876;DHT22;68253;52.506;5.486;2023-05-21T15:47:06;24.80;56.70
78876;DHT22;68253;52.506;5.486;2023-05-21T15:49:33;24.80;56.70
78876;DHT22;68253;52.506;5.486;2023-05-21T15:52:00;24.70;56.70
78876;DHT22;68253;52.506;5.486;2023-05-21T15:54:26;24.70;56.90
78876;DHT22;68253;52.506;5.486;2023-05-21T15:56:52;24.60;57.30
78876;DHT22;68253;52.506;5.486;2023-05-21T15:59:19;24.50;56.80
78876;DHT22;68253;52.506;5.486;2023-05-21T16:01:45;24.40;57.20